KMTVKMEI

Guest
Details From KMTV - Martinsville - Blue Ridge
To KMEI - KEY FLD
Flight Number -
Tags generated
Created
Modified
Stats Distance 504 nm / 934 km
Max Altitude 34,000 ft / 10,363 m
Waypoints 3
Social Downloads 0
Likes 0
Share VATSIM

Download

Looking for another format? Having issues loading an existing format? Contact us
Advertisement - Login to hide

Notes

Basic altitude profile: - Ascent Rate: 700ft/min - Ascent Speed: 120kts - Cruise Altitude: 8500ft - Cruise Speed: 150kts - Descent Rate: 1000ft/min - Descent Speed: 150kts Options: - Use NATs: no - Use PACOTS: no - Use low airways: no - Use high airways: no

Route

KMTV 3400N08500W KMEI

ID Type Via Altitude Latitude Longitude Leg Dist Tot Dist Heading (true) Name
O KMTV APT - 0 ft / 0 m 36.63075˚ -80.01834˚ - 0 nm - Martinsville - Blue Ridge
3400N08500W LATLON - 34,000 ft / 10,363 m 34.00000˚ -85.00000˚ 290 nm 290 nm 239° / 236° -
O KMEI APT - 0 ft / 0 m 32.33341˚ -88.75074˚ 213 nm 504 nm 243° / 241° KEY FLD

Altitude Profile

Advertisement - Login to hide

Weather


0- 5 10 15 20 25 30 35+ Temperature / ° C

Clouds and Precipitation
Forecast for 2017-12-12 00:00 UTC. Updated 15 minutes ago

Ground ~20,000 ft ~40,000 ft Winds

KMTV

Details ICAO KMTV
Name Martinsville - Blue Ridge
Region United States
Timezone America/New_York (UTC-5.0)
Stats Elevation 941 ft / 287 m (AMSL)
Location 36.630754° -80.018339°
Runways 1
Magnetic Variation 8.539° W

METAR

KMTV 112135Z AUTO 00000KT 10SM CLR 08/M02 A3000 RMK AO2 T00771025

Decode

TAF

Not found

Departure Runways

ID Width Length Bearing (true) Bearing (mag) Surface Threshold Offset Overrun Length
12 98 ft / 30 m 4,997 ft / 1,523 m 118.30° 126.84° Asphalt 0 ft / 0 m 0 ft / 0 m
30 98 ft / 30 m 4,997 ft / 1,523 m 298.30° 306.84° Asphalt 0 ft / 0 m 0 ft / 0 m

KMEI

Details ICAO KMEI (MEI)
Name KEY FLD
Region United States
Timezone America/Chicago (UTC-6.0)
Stats Elevation 297 ft / 91 m (AMSL)
Location 32.333412° -88.750738°
Runways 2
Magnetic Variation 1.954° W

METAR

KMEI 112058Z 24010KT 10SM CLR 20/01 A3008 RMK AO2 SLP186 T02000011 56025

Decode

TAF

KMEI 111720Z 1118/1218 23008KT P6SM SKC

Decode

Destination Runways

ID Width Length Bearing (true) Bearing (mag) Surface Threshold Offset Overrun Length
01 150 ft / 46 m 10,030 ft / 3,057 m 9.24° 11.19° Asphalt 1,000 ft / 305 m 1,000 ft / 305 m
04 150 ft / 46 m 4,602 ft / 1,403 m 43.85° 45.80° Asphalt 0 ft / 0 m 0 ft / 0 m
19 150 ft / 46 m 10,030 ft / 3,057 m 189.24° 191.19° Asphalt 1,000 ft / 305 m 1,000 ft / 305 m
22 150 ft / 46 m 4,602 ft / 1,403 m 223.86° 225.81° Asphalt 0 ft / 0 m 0 ft / 0 m

Approach Navaids

Runway Type Ident Frequency Range Bearing (true) Bearing (mag) Slope Elevation
01 Localiser IMEI 110.10 MHz 18 nm / 33 km 9.24° 11.19° - 297 ft / 91 m (AMSL)
01 Glidescope IMEI 110.10 MHz 10 nm / 19 km 9.24° 11.19° 3.00° 287 ft / 87 m (AMSL)

Popular Alternatives